Terminal Aerodrome Forecast
Issued by NWS Wakefield, VA

Home | Current Version | Previous Version | Text Only | Print | Product List | Glossary On
Versions: 1 2 3 4 5 6 7 8 9 10 11 12 13 14 15 16 17 18 19 20 21
960
FTUS41 KAKQ 110522
TAFORF
TAF
KORF 110522Z 1106/1206 27012G18KT P6SM SCT070
     FM111300 29015G25KT P6SM SKC
     FM112300 31007KT P6SM SKC=

USA.gov is the U.S. government's official web portal to all federal, state and local government web resources and services.